createdAt,value
2019-03-23T00:04:51.733Z,98.60
2019-03-23T00:10:01.992Z,90.60
2019-03-23T00:15:09.407Z,101.70
2019-03-23T00:20:22.571Z,91.95
2019-03-23T00:25:27.864Z,95.12
2019-03-23T00:30:38.122Z,83.60
2019-03-23T00:35:43.572Z,86.35
2019-03-23T00:40:51.773Z,87.47
2019-03-23T00:45:56.744Z,94.62
2019-03-23T00:51:02.006Z,96.17
2019-03-23T00:56:16.480Z,96.63
2019-03-23T01:01:21.813Z,96.35
2019-03-23T01:06:30.586Z,93.20
2019-03-23T01:11:37.125Z,94.03
2019-03-23T01:16:46.508Z,84.90
2019-03-23T01:21:51.939Z,86.35
2019-03-23T01:27:00.056Z,80.70
2019-03-23T01:32:04.231Z,138.60
2019-03-23T01:37:16.177Z,131.47
2019-03-23T01:42:20.371Z,181.22
2019-03-23T01:47:26.405Z,212.23
2019-03-23T01:52:31.067Z,155.57
2019-03-23T01:57:41.185Z,98.27
2019-03-23T02:02:49.106Z,101.33
2019-03-23T02:07:54.812Z,84.60
2019-03-23T02:12:59.473Z,87.62
2019-03-23T02:18:04.536Z,89.67
2019-03-23T02:23:08.801Z,86.60
2019-03-23T02:28:13.293Z,78.17
2019-03-23T02:33:17.702Z,78.70
2019-03-23T02:38:21.838Z,77.67
2019-03-23T02:43:27.560Z,76.77
2019-03-23T02:48:31.663Z,71.42
2019-03-23T02:53:36.116Z,70.12
2019-03-23T02:58:40.592Z,66.37
2019-03-23T03:03:47.913Z,65.62
2019-03-23T03:13:56.399Z,59.38
2019-03-23T03:19:00.553Z,59.70
2019-03-23T03:24:04.639Z,61.45
2019-03-23T03:29:09.032Z,63.48
2019-03-23T03:34:14.603Z,61.70
2019-03-23T03:39:19.195Z,65.67
2019-03-23T03:44:25.245Z,66.17
2019-03-23T03:49:29.921Z,61.23
2019-03-23T03:54:34.036Z,54.73
2019-03-23T03:59:38.980Z,54.90
2019-03-23T04:04:43.157Z,53.87
2019-03-23T04:09:47.280Z,50.70
2019-03-23T04:14:51.402Z,46.28
2019-03-23T04:19:56.742Z,44.35
2019-03-23T04:25:02.081Z,41.73
2019-03-23T04:30:06.990Z,34.65
2019-03-23T04:35:11.695Z,31.97
2019-03-23T04:40:15.816Z,29.87
2019-03-23T04:45:20.170Z,31.62
2019-03-23T04:50:24.798Z,34.60
2019-03-23T04:55:29.939Z,37.83
2019-03-23T05:00:36.243Z,35.23
2019-03-23T05:05:40.746Z,38.47
2019-03-23T05:10:45.265Z,36.45
2019-03-23T05:15:49.365Z,36.10
2019-03-23T05:20:53.799Z,36.80
2019-03-23T05:25:57.983Z,37.63
2019-03-23T05:31:02.188Z,36.48
2019-03-23T05:36:06.628Z,35.88
2019-03-23T05:41:10.871Z,37.20
2019-03-23T05:46:16.205Z,38.67
2019-03-23T05:51:20.769Z,35.98
2019-03-23T05:56:26.685Z,40.63
2019-03-23T06:01:30.831Z,37.90
2019-03-23T06:06:35.968Z,38.65
2019-03-23T06:11:40.956Z,36.40
2019-03-23T06:16:45.434Z,35.65
2019-03-23T06:21:49.960Z,37.50
2019-03-23T06:26:54.209Z,40.28
2019-03-23T06:31:58.613Z,37.28
2019-03-23T06:37:03.403Z,35.58
2019-03-23T06:42:07.920Z,36.08
2019-03-23T06:47:12.029Z,35.35
2019-03-23T06:52:18.165Z,35.28
2019-03-23T06:57:22.419Z,34.05
2019-03-23T07:02:28.363Z,36.40
2019-03-23T07:07:34.681Z,37.03
2019-03-23T07:12:39.724Z,36.40
2019-03-23T07:17:44.200Z,40.12
2019-03-23T07:22:48.774Z,41.40
2019-03-23T07:27:53.261Z,40.17
2019-03-23T07:32:58.099Z,40.85
2019-03-23T07:38:02.902Z,36.85
2019-03-23T07:43:08.106Z,37.80
2019-03-23T07:48:12.876Z,36.15
2019-03-23T07:53:17.715Z,39.48
2019-03-23T07:58:22.088Z,39.53
2019-03-23T08:03:27.037Z,36.55
2019-03-23T08:08:31.132Z,34.85
2019-03-23T08:13:36.074Z,35.70
2019-03-23T08:18:40.196Z,36.23
2019-03-23T08:23:45.803Z,37.73
2019-03-23T08:28:49.979Z,34.25
2019-03-23T08:33:54.197Z,33.28
2019-03-23T08:38:58.667Z,34.20
2019-03-23T08:44:02.914Z,33.65
2019-03-23T08:49:09.282Z,33.78
2019-03-23T08:54:13.452Z,32.80
2019-03-23T08:59:17.819Z,30.32
2019-03-23T09:04:22.776Z,34.25
2019-03-23T09:09:29.175Z,31.55
2019-03-23T09:14:33.710Z,30.08
2019-03-23T09:19:38.575Z,25.20
2019-03-23T09:24:42.675Z,22.07
2019-03-23T09:29:47.415Z,23.90
2019-03-23T09:34:52.122Z,22.35
2019-03-23T09:39:58.609Z,22.05
2019-03-23T09:45:02.986Z,22.87
2019-03-23T09:50:07.782Z,22.52
2019-03-23T09:55:12.193Z,21.62
2019-03-23T10:00:16.381Z,21.68
2019-03-23T10:05:22.279Z,21.37
2019-03-23T10:10:28.022Z,20.75
2019-03-23T10:15:32.946Z,21.97
2019-03-23T10:20:37.430Z,19.80
2019-03-23T10:25:42.431Z,19.73
2019-03-23T10:30:46.757Z,21.80
2019-03-23T10:35:53.502Z,20.25
2019-03-23T10:46:04.152Z,20.55
2019-03-23T10:51:09.294Z,19.73
2019-03-23T10:56:13.689Z,18.40
2019-03-23T11:01:17.819Z,19.65
2019-03-23T11:06:24.785Z,18.98
2019-03-23T11:11:31.007Z,20.60
2019-03-23T11:16:35.402Z,19.57
2019-03-23T11:21:40.304Z,20.23
2019-03-23T11:26:44.648Z,20.27
2019-03-23T11:31:49.048Z,19.82
2019-03-23T11:36:55.299Z,20.02
2019-03-23T11:42:02.237Z,18.60
2019-03-23T11:47:06.374Z,16.75
2019-03-23T11:52:10.652Z,17.10
2019-03-23T11:57:15.120Z,15.03
2019-03-23T12:02:19.447Z,13.93
2019-03-23T12:07:23.597Z,13.80
2019-03-23T12:12:28.569Z,15.10
2019-03-23T12:17:32.772Z,14.73
2019-03-23T12:22:37.115Z,14.30
2019-03-23T12:27:42.550Z,16.10
2019-03-23T12:32:47.388Z,15.63
2019-03-23T12:37:51.514Z,16.95
2019-03-23T12:42:57.242Z,14.95
2019-03-23T12:48:02.464Z,14.75
2019-03-23T12:53:08.379Z,12.90
2019-03-23T12:58:12.474Z,10.68
2019-03-23T13:03:16.573Z,10.90
2019-03-23T13:08:21.947Z,9.88
2019-03-23T13:13:26.876Z,9.43
2019-03-23T13:18:31.040Z,11.55
2019-03-23T13:23:36.047Z,11.80
2019-03-23T13:28:40.553Z,10.05
2019-03-23T13:33:44.691Z,11.57
2019-03-23T13:38:48.987Z,12.40
2019-03-23T13:43:53.074Z,9.23
2019-03-23T13:48:57.487Z,10.78
2019-03-23T13:54:03.198Z,10.23
2019-03-23T13:59:07.612Z,9.10
2019-03-23T14:04:13.538Z,9.90
2019-03-23T14:09:17.934Z,9.43
2019-03-23T14:14:22.151Z,10.03
2019-03-23T14:19:26.282Z,9.83
2019-03-23T14:24:30.431Z,9.18
2019-03-23T14:29:34.612Z,9.90
2019-03-23T14:34:38.963Z,10.65
2019-03-23T14:39:43.085Z,10.82
2019-03-23T14:44:49.028Z,9.45
2019-03-23T14:49:53.263Z,7.42
2019-03-23T14:54:57.363Z,10.13
2019-03-23T15:00:01.680Z,9.20
2019-03-23T15:05:08.021Z,8.13
2019-03-23T15:10:12.325Z,7.85
2019-03-23T15:15:17.368Z,8.85
2019-03-23T15:20:21.616Z,9.23
2019-03-23T15:25:26.692Z,8.15
2019-03-23T15:30:30.884Z,9.28
2019-03-23T15:35:35.252Z,9.55
2019-03-23T15:40:40.268Z,9.03
2019-03-23T15:45:45.959Z,9.20
2019-03-23T15:50:50.104Z,8.88
2019-03-23T15:55:54.366Z,9.68
2019-03-23T16:00:58.513Z,10.00
2019-03-23T16:06:02.641Z,10.10
2019-03-23T16:11:07.564Z,10.55
2019-03-23T16:16:11.645Z,12.13
2019-03-23T16:21:16.076Z,12.95
2019-03-23T16:26:21.215Z,13.93
2019-03-23T16:31:26.254Z,14.87
2019-03-23T16:41:34.420Z,15.90
2019-03-23T16:46:40.179Z,16.23
2019-03-23T16:51:44.362Z,17.37
2019-03-23T16:56:49.046Z,16.32
2019-03-23T17:01:54.277Z,16.70
2019-03-23T17:06:59.301Z,17.12
2019-03-23T17:12:03.660Z,17.42
2019-03-23T17:17:11.600Z,17.30
2019-03-23T17:22:16.580Z,17.05
2019-03-23T17:27:22.862Z,17.60
2019-03-23T17:32:27.105Z,17.23
2019-03-23T17:37:31.196Z,18.42
2019-03-23T17:42:37.236Z,18.15
2019-03-23T17:47:42.699Z,18.92
2019-03-23T17:52:47.912Z,19.40
2019-03-23T17:57:52.029Z,20.88
2019-03-23T18:02:56.933Z,23.62
2019-03-23T18:08:01.152Z,24.45
2019-03-23T18:13:15.960Z,26.73
2019-03-23T18:18:14.424Z,26.65
2019-03-23T18:23:19.365Z,29.30
2019-03-23T18:28:23.462Z,31.75
2019-03-23T18:33:29.760Z,32.53
2019-03-23T18:38:34.790Z,33.63
2019-03-23T18:43:39.731Z,33.28
2019-03-23T18:48:46.479Z,34.58
2019-03-23T18:53:52.794Z,36.17
2019-03-23T18:58:57.128Z,35.83
2019-03-23T19:04:01.969Z,34.58
2019-03-23T19:09:07.213Z,35.15
2019-03-23T19:14:12.355Z,34.40
2019-03-23T19:19:18.949Z,36.00
2019-03-23T19:24:24.349Z,39.48
2019-03-23T19:29:28.467Z,40.03
2019-03-23T19:34:32.677Z,40.90
2019-03-23T19:39:38.138Z,41.02
2019-03-23T19:44:42.622Z,40.10
2019-03-23T19:49:46.760Z,41.83
2019-03-23T19:54:51.232Z,41.08
2019-03-23T19:59:56.139Z,39.38
2019-03-23T20:05:00.418Z,39.95
2019-03-23T20:10:05.956Z,39.80
2019-03-23T20:15:10.905Z,40.38
2019-03-23T20:20:15.442Z,39.20
2019-03-23T20:25:20.656Z,37.25
2019-03-23T20:30:24.757Z,32.65
2019-03-23T20:35:30.249Z,34.38
2019-03-23T20:40:34.693Z,33.67
2019-03-23T20:45:39.044Z,21.80
2019-03-23T20:50:44.562Z,35.23
2019-03-23T20:55:48.712Z,37.88
2019-03-23T21:00:52.881Z,38.02
2019-03-23T21:05:57.956Z,45.38
2019-03-23T21:11:04.105Z,36.48
2019-03-23T21:16:09.440Z,48.63
2019-03-23T21:21:13.805Z,32.23
2019-03-23T21:26:19.612Z,49.90
2019-03-23T21:31:25.756Z,23.67
2019-03-23T21:36:30.730Z,31.07
2019-03-23T21:41:35.317Z,44.00
2019-03-23T21:46:40.913Z,46.75
2019-03-23T21:51:45.049Z,43.08
2019-03-23T21:56:49.998Z,20.05
2019-03-23T22:01:54.339Z,34.35
2019-03-23T22:06:58.924Z,28.60
2019-03-23T22:12:04.458Z,36.10
2019-03-23T22:17:10.058Z,35.73
2019-03-23T22:22:14.597Z,34.70
2019-03-23T22:27:19.273Z,23.70
2019-03-23T22:32:24.488Z,22.58
2019-03-23T22:37:30.615Z,16.00
2019-03-23T22:42:36.211Z,21.37
2019-03-23T22:47:40.405Z,23.57
2019-03-23T22:52:45.956Z,18.52
2019-03-23T22:57:50.345Z,19.50
2019-03-23T23:02:56.941Z,26.35
2019-03-23T23:08:01.717Z,27.32
2019-03-23T23:13:05.793Z,18.85
2019-03-23T23:18:11.160Z,23.65
2019-03-23T23:23:16.367Z,22.20
2019-03-23T23:28:21.394Z,11.90
2019-03-23T23:33:25.892Z,18.73
2019-03-23T23:38:31.828Z,20.12
2019-03-23T23:43:37.230Z,15.75
2019-03-23T23:48:50.860Z,18.70
2019-03-23T23:53:49.146Z,18.50
2019-03-23T23:58:54.150Z,11.22
